createdAt,value
2017-01-04T00:00:45.561Z,4.07
2017-01-04T00:01:56.314Z,4.09
2017-01-04T00:03:07.037Z,4.07
2017-01-04T00:04:18.128Z,4.1
2017-01-04T00:05:28.869Z,4.16
2017-01-04T00:06:39.588Z,4.1
2017-01-04T00:07:50.311Z,4.12
2017-01-04T00:09:01.041Z,4.18
2017-01-04T00:10:11.781Z,4.22
2017-01-04T00:11:22.507Z,4.18
2017-01-04T00:12:33.253Z,4.14
2017-01-04T00:13:43.975Z,4.22
2017-01-04T00:14:54.713Z,4.14
2017-01-04T00:16:05.442Z,4.22
2017-01-04T00:17:16.177Z,4.27
2017-01-04T00:18:26.901Z,4.25
2017-01-04T00:19:37.628Z,4.25
2017-01-04T00:20:48.315Z,4.22
2017-01-04T00:21:59.036Z,4.28
2017-01-04T00:23:09.786Z,4.25
2017-01-04T00:24:20.485Z,4.27
2017-01-04T00:25:31.231Z,4.27
2017-01-04T00:26:41.958Z,4.31
2017-01-04T00:27:52.691Z,4.3
2017-01-04T00:29:03.436Z,4.21
2017-01-04T00:30:14.186Z,4.24
2017-01-04T00:31:24.887Z,4.28
2017-01-04T00:32:35.611Z,4.31
2017-01-04T00:33:46.328Z,4.31
2017-01-04T00:34:57.042Z,4.31
2017-01-04T00:36:07.752Z,4.31
2017-01-04T00:37:18.459Z,4.31
2017-01-04T00:38:29.209Z,4.3
2017-01-04T00:39:39.979Z,4.38
2017-01-04T00:40:50.680Z,4.24
2017-01-04T00:42:01.421Z,4.31
2017-01-04T00:43:12.146Z,4.24
2017-01-04T00:44:22.871Z,4.28
2017-01-04T00:45:33.631Z,4.25
2017-01-04T00:46:44.352Z,4.32
2017-01-04T00:47:55.061Z,4.3
2017-01-04T00:49:05.782Z,4.24
2017-01-04T00:50:16.507Z,4.3
2017-01-04T00:51:27.246Z,4.27
2017-01-04T00:52:37.969Z,4.3
2017-01-04T00:53:48.680Z,4.34
2017-01-04T00:54:59.408Z,4.3
2017-01-04T00:56:10.108Z,4.3
2017-01-04T00:57:20.852Z,4.24
2017-01-04T00:58:31.588Z,4.3
2017-01-04T00:59:42.291Z,4.28
2017-01-04T01:00:53.034Z,4.36
2017-01-04T01:02:03.758Z,4.3
2017-01-04T01:03:14.482Z,4.4
2017-01-04T01:04:25.205Z,4.36
2017-01-04T01:05:35.924Z,4.3
2017-01-04T01:06:46.660Z,4.32
2017-01-04T01:07:57.389Z,4.28
2017-01-04T01:09:08.102Z,4.34
2017-01-04T01:10:18.826Z,4.31
2017-01-04T01:11:29.548Z,4.42
2017-01-04T01:12:40.344Z,4.38
2017-01-04T01:13:51.064Z,4.34
2017-01-04T01:15:01.768Z,4.42
2017-01-04T01:16:12.519Z,4.45
2017-01-04T01:17:23.232Z,4.4
2017-01-04T01:18:33.970Z,4.43
2017-01-04T01:19:44.716Z,4.46
2017-01-04T01:20:55.425Z,4.46
2017-01-04T01:22:06.161Z,4.5
2017-01-04T01:23:16.888Z,4.49
2017-01-04T01:24:27.586Z,4.56
2017-01-04T01:25:38.349Z,4.57
2017-01-04T01:26:49.077Z,4.61
2017-01-04T01:27:59.801Z,4.56
2017-01-04T01:29:10.543Z,4.56
2017-01-04T01:30:21.269Z,4.6
2017-01-04T01:31:32.009Z,4.53
2017-01-04T01:32:43.131Z,4.6
2017-01-04T01:33:53.856Z,4.57
2017-01-04T01:35:04.594Z,4.63
2017-01-04T01:36:15.318Z,4.63
2017-01-04T01:37:26.035Z,4.64
2017-01-04T01:38:36.766Z,4.64
2017-01-04T01:39:47.499Z,4.58
2017-01-04T01:40:58.248Z,4.64
2017-01-04T01:42:08.976Z,4.64
2017-01-04T01:43:19.719Z,4.66
2017-01-04T01:44:30.436Z,4.45
2017-01-04T01:45:41.189Z,4.27
2017-01-04T01:46:51.888Z,4.03
2017-01-04T01:48:02.632Z,3.68
2017-01-04T01:49:13.370Z,3.33
2017-01-04T01:50:24.097Z,3.26
2017-01-04T01:51:34.858Z,3.06
2017-01-04T01:52:45.608Z,2.98
2017-01-04T01:53:56.308Z,2.95
2017-01-04T01:55:07.047Z,2.9
2017-01-04T01:56:17.793Z,2.69
2017-01-04T01:57:28.543Z,2.59
2017-01-04T01:58:39.246Z,2.59
2017-01-04T01:59:49.968Z,2.52
2017-01-04T02:01:00.706Z,2.52
2017-01-04T02:02:11.452Z,2.46
2017-01-04T02:03:22.200Z,2.34
2017-01-04T02:04:32.927Z,2.37
2017-01-04T02:05:44.049Z,2.32
2017-01-04T02:06:54.786Z,2.22
2017-01-04T02:08:05.556Z,2.25
2017-01-04T02:09:16.303Z,2.26
2017-01-04T02:10:27.007Z,2.23
2017-01-04T02:11:37.729Z,2.23
2017-01-04T02:12:48.473Z,2.22
2017-01-04T02:13:59.192Z,2.18
2017-01-04T02:15:09.933Z,2.25
2017-01-04T02:16:20.629Z,2.21
2017-01-04T02:17:31.329Z,2.36
2017-01-04T02:18:42.050Z,2.34
2017-01-04T02:19:52.792Z,2.37
2017-01-04T02:21:03.513Z,2.28
2017-01-04T02:22:14.234Z,2.43
2017-01-04T02:23:24.959Z,2.37
2017-01-04T02:24:35.686Z,2.46
2017-01-04T02:25:46.418Z,2.37
2017-01-04T02:26:57.164Z,2.39
2017-01-04T02:28:07.893Z,2.43
2017-01-04T02:29:18.992Z,2.41
2017-01-04T02:30:29.731Z,2.43
2017-01-04T02:31:40.453Z,2.43
2017-01-04T02:32:51.173Z,2.44
2017-01-04T02:34:01.908Z,2.39
2017-01-04T02:35:12.636Z,2.34
2017-01-04T02:36:23.366Z,2.4
2017-01-04T02:37:34.106Z,2.37
2017-01-04T02:38:44.827Z,2.4
2017-01-04T02:39:55.532Z,2.55
2017-01-04T02:41:06.244Z,2.51
2017-01-04T02:42:16.990Z,2.41
2017-01-04T02:43:27.748Z,2.52
2017-01-04T02:44:38.466Z,2.54
2017-01-04T02:45:49.187Z,2.5
2017-01-04T02:46:59.921Z,2.58
2017-01-04T02:48:10.669Z,2.54
2017-01-04T02:49:21.376Z,2.55
2017-01-04T02:50:32.108Z,2.61
2017-01-04T02:51:42.831Z,2.59
2017-01-04T02:52:53.564Z,2.61
2017-01-04T02:54:04.297Z,2.64
2017-01-04T02:55:15.051Z,2.69
2017-01-04T02:56:25.772Z,2.68
2017-01-04T02:57:36.496Z,2.76
2017-01-04T02:58:47.593Z,2.65
2017-01-04T02:59:58.311Z,2.73
2017-01-04T03:01:09.051Z,2.76
2017-01-04T03:02:19.773Z,2.64
2017-01-04T03:03:30.491Z,2.72
2017-01-04T03:04:41.220Z,2.7
2017-01-04T03:05:51.944Z,2.72
2017-01-04T03:07:02.682Z,2.62
2017-01-04T03:08:13.407Z,2.69
2017-01-04T03:09:24.133Z,2.59
2017-01-04T03:10:34.857Z,2.75
2017-01-04T03:11:45.591Z,2.72
2017-01-04T03:12:56.334Z,2.69
2017-01-04T03:14:07.430Z,2.72
2017-01-04T03:15:18.185Z,2.72
2017-01-04T03:16:29.271Z,2.7
2017-01-04T03:17:40.400Z,2.65
2017-01-04T03:18:51.099Z,2.64
2017-01-04T03:20:01.838Z,2.64
2017-01-04T03:21:12.568Z,2.64
2017-01-04T03:22:23.312Z,2.69
2017-01-04T03:23:34.050Z,2.59
2017-01-04T03:24:44.755Z,2.61
2017-01-04T03:25:55.490Z,2.68
2017-01-04T03:27:06.211Z,2.64
2017-01-04T03:28:16.939Z,2.64
2017-01-04T03:29:28.053Z,2.65
2017-01-04T03:30:38.773Z,2.65
2017-01-04T03:31:49.524Z,2.73
2017-01-04T03:33:00.241Z,2.7
2017-01-04T03:34:10.973Z,2.75
2017-01-04T03:35:21.683Z,2.75
2017-01-04T03:36:32.414Z,2.75
2017-01-04T03:37:43.111Z,2.7
2017-01-04T03:38:53.874Z,2.77
2017-01-04T03:40:04.604Z,2.87
2017-01-04T03:41:15.701Z,2.83
2017-01-04T03:42:26.448Z,2.87
2017-01-04T03:43:37.183Z,2.88
2017-01-04T03:44:47.875Z,2.93
2017-01-04T03:45:58.655Z,2.95
2017-01-04T03:47:09.396Z,2.9
2017-01-04T03:48:20.101Z,2.9
2017-01-04T03:49:30.839Z,2.95
2017-01-04T03:50:41.556Z,2.88
2017-01-04T03:51:52.302Z,2.94
2017-01-04T03:53:03.035Z,3.05
2017-01-04T03:54:13.769Z,2.98
2017-01-04T03:55:24.481Z,3.05
2017-01-04T03:56:35.200Z,3.01
2017-01-04T03:57:45.932Z,3.03
2017-01-04T03:58:56.653Z,3.05
2017-01-04T04:00:07.362Z,3.05
2017-01-04T04:01:18.099Z,3.03
2017-01-04T04:02:28.845Z,2.93
2017-01-04T04:03:39.565Z,2.98
2017-01-04T04:04:50.290Z,2.97
2017-01-04T04:06:01.017Z,2.95
2017-01-04T04:07:11.753Z,3
2017-01-04T04:08:22.476Z,2.94
2017-01-04T04:09:33.202Z,2.93
2017-01-04T04:10:43.945Z,2.77
2017-01-04T04:11:54.687Z,2.97
2017-01-04T04:13:05.441Z,2.98
2017-01-04T04:14:16.154Z,2.88
2017-01-04T04:15:26.876Z,2.83
2017-01-04T04:16:37.980Z,2.88
2017-01-04T04:17:49.124Z,2.8
2017-01-04T04:18:59.846Z,2.77
2017-01-04T04:20:10.566Z,2.73
2017-01-04T04:21:21.285Z,2.69
2017-01-04T04:22:31.998Z,2.76
2017-01-04T04:23:42.743Z,2.72
2017-01-04T04:24:53.493Z,2.61
2017-01-04T04:26:04.247Z,2.7
2017-01-04T04:27:14.982Z,2.62
2017-01-04T04:28:25.704Z,2.61
2017-01-04T04:29:36.427Z,2.55
2017-01-04T04:30:47.174Z,2.52
2017-01-04T04:31:57.903Z,2.46
2017-01-04T04:33:08.637Z,2.54
2017-01-04T04:34:19.362Z,2.55
2017-01-04T04:35:30.107Z,2.39
2017-01-04T04:36:40.837Z,2.36
2017-01-04T04:37:51.562Z,2.4
2017-01-04T04:39:02.353Z,2.39
2017-01-04T04:40:13.088Z,2.37
2017-01-04T04:41:23.817Z,2.39
2017-01-04T04:42:34.547Z,2.34
2017-01-04T04:43:45.263Z,2.39
2017-01-04T04:44:55.997Z,2.39
2017-01-04T04:46:06.722Z,2.21
2017-01-04T04:47:17.442Z,2.23
2017-01-04T04:48:28.172Z,2.26
2017-01-04T04:49:38.910Z,2.23
2017-01-04T04:50:49.635Z,2.25
2017-01-04T04:52:00.352Z,2.22
2017-01-04T04:53:11.077Z,2.22
2017-01-04T04:54:21.775Z,2.18
2017-01-04T04:55:32.486Z,2.18
2017-01-04T04:56:43.244Z,2.28
2017-01-04T04:57:53.982Z,2.16
2017-01-04T04:59:04.699Z,2.21
2017-01-04T05:00:15.446Z,2.18
2017-01-04T05:01:26.177Z,2.07
2017-01-04T05:02:36.924Z,2.08
2017-01-04T05:03:47.641Z,2.1
2017-01-04T05:04:58.365Z,2.1
2017-01-04T05:06:09.108Z,2.12
2017-01-04T05:07:19.832Z,2.05
2017-01-04T05:08:30.525Z,2.05
2017-01-04T05:09:41.267Z,2.1
2017-01-04T05:10:51.988Z,2.03
2017-01-04T05:12:02.710Z,2.08
2017-01-04T05:13:13.451Z,2.07
2017-01-04T05:14:24.176Z,2.12
2017-01-04T05:15:34.907Z,2.12
2017-01-04T05:16:45.653Z,2.08
2017-01-04T05:17:56.396Z,2.07
2017-01-04T05:19:07.135Z,2.12
2017-01-04T05:20:17.880Z,2.03
2017-01-04T05:21:28.631Z,2.01
2017-01-04T05:22:39.373Z,2.03
2017-01-04T05:23:50.089Z,2.03
2017-01-04T05:25:00.824Z,2.03
2017-01-04T05:26:11.610Z,2.08
2017-01-04T05:27:22.353Z,2.15
2017-01-04T05:28:33.099Z,2.12
2017-01-04T05:29:43.820Z,2.12
2017-01-04T05:30:54.552Z,2.03
2017-01-04T05:32:05.295Z,2.1
2017-01-04T05:33:16.070Z,2.12
2017-01-04T05:34:26.783Z,2.14
2017-01-04T05:35:37.513Z,2.05
2017-01-04T05:36:48.233Z,2.15
2017-01-04T05:37:58.967Z,2.07
2017-01-04T05:39:09.697Z,2.07
2017-01-04T05:40:20.444Z,2.16
2017-01-04T05:41:31.180Z,2.1
2017-01-04T05:42:41.899Z,2.08
2017-01-04T05:43:52.621Z,2.08
2017-01-04T05:45:03.369Z,2.14
2017-01-04T05:46:14.116Z,2.14
2017-01-04T05:47:24.862Z,2.15
2017-01-04T05:48:35.592Z,2.12
2017-01-04T05:49:46.328Z,2.19
2017-01-04T05:50:57.028Z,2.23
2017-01-04T05:52:07.768Z,2.3
2017-01-04T05:53:18.516Z,2.22
2017-01-04T05:54:29.208Z,2.25
2017-01-04T05:55:39.930Z,2.22
2017-01-04T05:56:50.654Z,2.28
2017-01-04T05:58:01.382Z,2.21
2017-01-04T05:59:12.102Z,2.33
2017-01-04T06:00:22.867Z,2.3
2017-01-04T06:01:33.572Z,2.36
2017-01-04T06:02:44.293Z,2.34
2017-01-04T06:03:55.012Z,2.44
2017-01-04T06:05:05.746Z,2.36
2017-01-04T06:06:16.479Z,2.37
2017-01-04T06:07:27.222Z,2.39
2017-01-04T06:08:37.986Z,2.44
2017-01-04T06:09:48.692Z,2.51
2017-01-04T06:10:59.383Z,2.47
2017-01-04T06:12:10.087Z,2.57
2017-01-04T06:13:20.792Z,2.59
2017-01-04T06:14:31.513Z,2.61
2017-01-04T06:15:42.267Z,2.62
2017-01-04T06:16:53.016Z,2.62
2017-01-04T06:18:03.758Z,2.69
2017-01-04T06:19:14.496Z,2.72
2017-01-04T06:20:25.201Z,2.79
2017-01-04T06:21:35.913Z,2.85
2017-01-04T06:22:46.641Z,2.85
2017-01-04T06:23:57.390Z,2.83
2017-01-04T06:25:08.108Z,2.95
2017-01-04T06:26:18.846Z,2.88
2017-01-04T06:27:29.604Z,2.8
2017-01-04T06:28:40.721Z,2.95
2017-01-04T06:29:51.467Z,2.95
2017-01-04T06:31:02.180Z,2.97
2017-01-04T06:32:12.885Z,3.03
2017-01-04T06:33:23.600Z,3.05
2017-01-04T06:34:34.331Z,3.09
2017-01-04T06:35:45.071Z,3.05
2017-01-04T06:36:55.770Z,3.03
2017-01-04T06:38:06.463Z,3.18
2017-01-04T06:39:17.184Z,3.12
2017-01-04T06:40:27.926Z,3.15
2017-01-04T06:41:38.646Z,3.24
2017-01-04T06:42:49.375Z,3.26
2017-01-04T06:44:00.092Z,3.19
2017-01-04T06:45:10.818Z,3.29
2017-01-04T06:46:21.554Z,3.27
2017-01-04T06:47:32.280Z,3.34
2017-01-04T06:48:42.994Z,3.33
2017-01-04T06:49:53.725Z,3.26
2017-01-04T06:51:04.488Z,3.31
2017-01-04T06:52:15.213Z,3.36
2017-01-04T06:53:25.939Z,3.37
2017-01-04T06:54:36.655Z,3.3
2017-01-04T06:55:47.395Z,3.41
2017-01-04T06:56:58.168Z,3.46
2017-01-04T06:58:08.893Z,3.37
2017-01-04T06:59:19.635Z,3.41
2017-01-04T07:00:30.352Z,3.36
2017-01-04T07:01:41.081Z,3.45
2017-01-04T07:02:51.776Z,3.37
2017-01-04T07:04:02.490Z,3.41
2017-01-04T07:05:13.243Z,3.41
2017-01-04T07:06:23.993Z,3.4
2017-01-04T07:07:34.752Z,3.46
2017-01-04T07:08:45.475Z,3.5
2017-01-04T07:09:56.205Z,3.4
2017-01-04T07:11:06.917Z,3.45
2017-01-04T07:12:17.613Z,3.41
2017-01-04T07:13:28.355Z,3.52
2017-01-04T07:14:39.077Z,3.41
2017-01-04T07:15:49.796Z,3.5
2017-01-04T07:17:00.527Z,3.48
2017-01-04T07:18:11.238Z,3.55
2017-01-04T07:19:21.948Z,3.46
2017-01-04T07:20:32.667Z,3.52
2017-01-04T07:21:43.404Z,3.48
2017-01-04T07:22:54.123Z,3.48
2017-01-04T07:24:04.853Z,3.49
2017-01-04T07:25:15.595Z,3.5
2017-01-04T07:26:26.294Z,3.52
2017-01-04T07:27:37.012Z,3.49
2017-01-04T07:28:47.725Z,3.5
2017-01-04T07:29:58.449Z,3.52
2017-01-04T07:31:09.195Z,3.52
2017-01-04T07:32:19.937Z,3.61
2017-01-04T07:33:30.661Z,3.46
2017-01-04T07:34:41.368Z,3.5
2017-01-04T07:35:52.085Z,3.63
2017-01-04T07:37:02.799Z,3.49
2017-01-04T07:38:13.516Z,3.52
2017-01-04T07:39:24.262Z,3.49
2017-01-04T07:40:34.971Z,3.49
2017-01-04T07:41:45.692Z,3.5
2017-01-04T07:42:56.438Z,3.5
2017-01-04T07:44:07.169Z,3.61
2017-01-04T07:45:17.890Z,3.55
2017-01-04T07:46:28.585Z,3.55
2017-01-04T07:47:39.295Z,3.64
2017-01-04T07:48:50.042Z,3.55
2017-01-04T07:50:00.798Z,3.58
2017-01-04T07:51:11.519Z,3.58
2017-01-04T07:52:22.621Z,3.55
2017-01-04T07:53:33.360Z,3.49
2017-01-04T07:54:44.081Z,3.58
2017-01-04T07:55:54.826Z,3.58
2017-01-04T07:57:05.522Z,3.63
2017-01-04T07:58:16.268Z,3.52
2017-01-04T07:59:27.001Z,3.63
2017-01-04T08:00:37.745Z,3.5
2017-01-04T08:01:48.479Z,3.5
2017-01-04T08:02:59.205Z,3.5
2017-01-04T08:04:10.321Z,3.49
2017-01-04T08:05:21.050Z,3.67
2017-01-04T08:06:31.768Z,3.68
2017-01-04T08:07:42.465Z,3.66
2017-01-04T08:08:53.193Z,3.63
2017-01-04T08:10:03.950Z,3.64
2017-01-04T08:11:14.684Z,3.66
2017-01-04T08:12:25.424Z,3.76
2017-01-04T08:13:36.140Z,3.7
2017-01-04T08:14:47.244Z,3.73
2017-01-04T08:15:57.990Z,3.77
2017-01-04T08:17:08.729Z,3.73
2017-01-04T08:18:19.458Z,3.73
2017-01-04T08:19:30.195Z,3.71
2017-01-04T08:20:40.922Z,3.82
2017-01-04T08:21:51.659Z,3.76
2017-01-04T08:23:02.387Z,3.85
2017-01-04T08:24:13.100Z,3.84
2017-01-04T08:25:23.832Z,3.96
2017-01-04T08:26:34.531Z,3.85
2017-01-04T08:27:45.271Z,3.91
2017-01-04T08:28:55.969Z,3.88
2017-01-04T08:30:06.688Z,3.92
2017-01-04T08:31:17.379Z,3.89
2017-01-04T08:32:28.105Z,4.06
2017-01-04T08:33:38.828Z,4.03
2017-01-04T08:34:49.565Z,4.03
2017-01-04T08:36:00.286Z,4.03
2017-01-04T08:37:11.017Z,4.06
2017-01-04T08:38:21.758Z,4.06
2017-01-04T08:39:32.481Z,4.03
2017-01-04T08:40:43.205Z,4.09
2017-01-04T08:41:53.944Z,4.12
2017-01-04T08:43:04.672Z,4.02
2017-01-04T08:44:15.398Z,4.09
2017-01-04T08:45:26.139Z,4.1
2017-01-04T08:46:36.850Z,4.06
2017-01-04T08:47:47.599Z,4.03
2017-01-04T08:48:58.328Z,4.02
2017-01-04T08:50:09.063Z,4.1
2017-01-04T08:51:19.785Z,4.06
2017-01-04T08:52:30.513Z,4.06
2017-01-04T08:53:41.263Z,4.09
2017-01-04T08:54:52.001Z,4.07
2017-01-04T08:56:02.722Z,4.06
2017-01-04T08:57:13.441Z,4.09
2017-01-04T08:58:24.165Z,4.09
2017-01-04T08:59:34.897Z,4.06
2017-01-04T09:00:45.616Z,4.02
2017-01-04T09:01:56.354Z,4.02
2017-01-04T09:03:07.080Z,4.03
2017-01-04T09:04:17.825Z,3.95
2017-01-04T09:05:28.538Z,3.94
2017-01-04T09:06:39.259Z,4.06
2017-01-04T09:07:49.980Z,4.07
2017-01-04T09:09:00.714Z,4.06
2017-01-04T09:10:11.847Z,4.03
2017-01-04T09:11:22.574Z,3.99
2017-01-04T09:12:33.303Z,4.12
2017-01-04T09:13:44.035Z,4.06
2017-01-04T09:14:54.757Z,4.06
2017-01-04T09:16:05.503Z,4.03
2017-01-04T09:17:16.208Z,4.06
2017-01-04T09:18:26.934Z,4.07
2017-01-04T09:19:37.655Z,4.04
2017-01-04T09:20:48.368Z,4.03
2017-01-04T09:21:59.109Z,4.09
2017-01-04T09:23:09.841Z,4.06
2017-01-04T09:24:20.608Z,4.12
2017-01-04T09:25:31.332Z,4.1
2017-01-04T09:26:42.072Z,4.04
2017-01-04T09:27:52.825Z,4.07
2017-01-04T09:29:03.560Z,4.09
2017-01-04T09:30:14.273Z,4.13
2017-01-04T09:31:25.011Z,4.14
2017-01-04T09:32:35.735Z,4.13
2017-01-04T09:33:46.469Z,4.13
2017-01-04T09:34:57.190Z,4.16
2017-01-04T09:36:07.897Z,4.14
2017-01-04T09:37:18.636Z,4.12
2017-01-04T09:38:29.389Z,4.1
2017-01-04T09:39:40.108Z,4.13
2017-01-04T09:40:50.834Z,4.09
2017-01-04T09:42:01.574Z,4.09
2017-01-04T09:43:12.313Z,4.24
2017-01-04T09:44:23.059Z,4.2
2017-01-04T09:45:33.804Z,4.21
2017-01-04T09:46:44.563Z,4.24
2017-01-04T09:47:55.296Z,4.2
2017-01-04T09:49:06.072Z,4.2
2017-01-04T09:50:16.817Z,4.31
2017-01-04T09:51:27.558Z,4.28
2017-01-04T09:52:38.281Z,4.25
2017-01-04T09:53:49.030Z,4.21
2017-01-04T09:54:59.755Z,4.32
2017-01-04T09:56:10.497Z,4.36
2017-01-04T09:57:21.223Z,4.34
2017-01-04T09:58:31.939Z,4.3
2017-01-04T09:59:42.646Z,4.3
2017-01-04T10:00:53.360Z,4.42
2017-01-04T10:02:04.111Z,4.43
2017-01-04T10:03:14.832Z,4.45
2017-01-04T10:04:25.569Z,4.48
2017-01-04T10:05:36.325Z,4.49
2017-01-04T10:06:47.033Z,4.45
2017-01-04T10:07:57.770Z,4.45
2017-01-04T10:09:08.502Z,4.52
2017-01-04T10:10:19.203Z,4.52
2017-01-04T10:11:29.921Z,4.46
2017-01-04T10:12:40.638Z,4.58
2017-01-04T10:13:51.370Z,4.53
2017-01-04T10:15:02.104Z,4.64
2017-01-04T10:16:12.861Z,4.63
2017-01-04T10:17:23.621Z,4.75
2017-01-04T10:18:34.329Z,4.74
2017-01-04T10:19:45.046Z,4.95
2017-01-04T10:20:55.807Z,4.94
2017-01-04T10:22:06.559Z,4.98
2017-01-04T10:23:17.284Z,5.01
2017-01-04T10:24:28.022Z,5.02
2017-01-04T10:25:38.780Z,5.04
2017-01-04T10:26:49.492Z,5
2017-01-04T10:28:00.235Z,5
2017-01-04T10:29:10.984Z,5
2017-01-04T10:30:21.735Z,4.92
2017-01-04T10:31:32.457Z,4.98
2017-01-04T10:32:43.181Z,5
2017-01-04T10:33:53.918Z,5.02
2017-01-04T10:35:04.648Z,4.94
2017-01-04T10:36:15.389Z,4.9
2017-01-04T10:37:26.107Z,4.9
2017-01-04T10:38:36.850Z,4.89
2017-01-04T10:39:47.595Z,4.94
2017-01-04T10:40:58.353Z,4.92
2017-01-04T10:42:09.100Z,4.94
2017-01-04T10:43:20.194Z,4.9
2017-01-04T10:44:30.908Z,4.92
2017-01-04T10:45:41.635Z,4.9
2017-01-04T10:46:52.372Z,4.94
2017-01-04T10:48:03.100Z,4.94
2017-01-04T10:49:13.839Z,4.86
2017-01-04T10:50:24.572Z,4.95
2017-01-04T10:51:35.317Z,4.87
2017-01-04T10:52:46.076Z,4.83
2017-01-04T10:53:56.834Z,4.89
2017-01-04T10:55:07.553Z,4.87
2017-01-04T10:56:18.317Z,4.89
2017-01-04T10:57:29.063Z,4.9
2017-01-04T10:58:39.818Z,4.9
2017-01-04T10:59:50.560Z,4.92
2017-01-04T11:01:01.302Z,4.84
2017-01-04T11:02:12.023Z,4.82
2017-01-04T11:03:22.743Z,4.9
2017-01-04T11:04:33.473Z,4.68
2017-01-04T11:05:44.217Z,4.78
2017-01-04T11:06:54.938Z,4.71
2017-01-04T11:08:05.677Z,4.76
2017-01-04T11:09:16.398Z,4.74
2017-01-04T11:10:27.144Z,4.76
2017-01-04T11:11:37.873Z,4.6
2017-01-04T11:12:48.592Z,4.64
2017-01-04T11:13:59.304Z,4.53
2017-01-04T11:15:10.025Z,4.49
2017-01-04T11:16:20.806Z,4.32
2017-01-04T11:17:31.524Z,4.27
2017-01-04T11:18:42.249Z,4.16
2017-01-04T11:19:52.966Z,4.14
2017-01-04T11:21:03.691Z,4.02
2017-01-04T11:22:14.436Z,3.92
2017-01-04T11:23:25.159Z,3.89
2017-01-04T11:24:35.875Z,3.78
2017-01-04T11:25:46.599Z,3.74
2017-01-04T11:26:57.359Z,3.7
2017-01-04T11:28:08.465Z,3.63
2017-01-04T11:29:19.202Z,3.64
2017-01-04T11:30:29.922Z,3.61
2017-01-04T11:31:40.645Z,3.7
2017-01-04T11:32:51.397Z,3.61
2017-01-04T11:34:02.124Z,3.63
2017-01-04T11:35:12.866Z,3.74
2017-01-04T11:36:23.609Z,3.71
2017-01-04T11:37:34.326Z,3.7
2017-01-04T11:38:45.051Z,3.71
2017-01-04T11:39:55.794Z,3.74
2017-01-04T11:41:06.544Z,3.71
2017-01-04T11:42:17.265Z,3.76
2017-01-04T11:43:28.011Z,3.74
2017-01-04T11:44:38.727Z,3.73
2017-01-04T11:45:49.470Z,3.71
2017-01-04T11:47:00.190Z,3.7
2017-01-04T11:48:10.919Z,3.77
2017-01-04T11:49:21.658Z,3.78
2017-01-04T11:50:32.407Z,3.76
2017-01-04T11:51:43.099Z,3.81
2017-01-04T11:52:54.211Z,3.88
2017-01-04T11:54:04.925Z,3.84
2017-01-04T11:55:15.623Z,3.92
2017-01-04T11:56:26.712Z,3.88
2017-01-04T11:57:37.438Z,3.94
2017-01-04T11:58:48.161Z,3.94
2017-01-04T11:59:58.896Z,3.86
2017-01-04T12:01:09.619Z,3.99
2017-01-04T12:02:20.320Z,3.94
2017-01-04T12:03:31.096Z,4.02
2017-01-04T12:04:41.834Z,4.07
2017-01-04T12:05:52.552Z,4.02
2017-01-04T12:07:03.273Z,4.04
2017-01-04T12:08:13.993Z,4.06
2017-01-04T12:09:24.723Z,4.25
2017-01-04T12:10:35.439Z,4.31
2017-01-04T12:11:46.157Z,4.31
2017-01-04T12:12:56.888Z,4.38
2017-01-04T12:14:07.662Z,4.46
2017-01-04T12:15:18.427Z,4.46
2017-01-04T12:16:29.170Z,4.57
2017-01-04T12:17:39.925Z,4.67
2017-01-04T12:18:50.668Z,4.7
2017-01-04T12:20:01.387Z,4.84
2017-01-04T12:21:12.129Z,4.86
2017-01-04T12:22:22.864Z,4.86
2017-01-04T12:23:33.596Z,5
2017-01-04T12:24:44.339Z,4.97
2017-01-04T12:25:55.047Z,4.95
2017-01-04T12:27:05.761Z,4.98
2017-01-04T12:28:16.503Z,4.94
2017-01-04T12:29:27.253Z,5.04
2017-01-04T12:30:37.975Z,4.97
2017-01-04T12:31:48.699Z,5
2017-01-04T12:32:59.398Z,5.02
2017-01-04T12:34:10.139Z,5.13
2017-01-04T12:35:20.856Z,5.19
2017-01-04T12:36:31.614Z,5.16
2017-01-04T12:37:42.327Z,5.15
2017-01-04T12:38:53.057Z,5.2
2017-01-04T12:40:03.790Z,5.22
2017-01-04T12:41:14.552Z,5.37
2017-01-04T12:42:25.285Z,5.38
2017-01-04T12:43:36.004Z,5.34
2017-01-04T12:44:46.737Z,5.49
2017-01-04T12:45:57.471Z,5.46
2017-01-04T12:47:08.226Z,5.55
2017-01-04T12:48:18.930Z,5.46
2017-01-04T12:49:29.651Z,5.31
2017-01-04T12:50:40.386Z,5.23
2017-01-04T12:51:51.129Z,5
2017-01-04T12:53:01.878Z,4.67
2017-01-04T12:54:12.596Z,4.6
2017-01-04T12:55:23.353Z,4.39
2017-01-04T12:56:34.096Z,4.03
2017-01-04T12:57:44.838Z,3.67
2017-01-04T12:58:55.559Z,3.41
2017-01-04T13:00:06.290Z,3.09
2017-01-04T13:01:17.033Z,2.82
2017-01-04T13:02:27.769Z,2.64
2017-01-04T13:03:38.503Z,2.4
2017-01-04T13:04:49.219Z,2.22
2017-01-04T13:05:59.965Z,2.08
2017-01-04T13:07:10.692Z,1.95
2017-01-04T13:08:21.426Z,1.75
2017-01-04T13:09:32.174Z,1.74
2017-01-04T13:10:42.891Z,1.67
2017-01-04T13:11:53.649Z,1.52
2017-01-04T13:13:04.392Z,1.36
2017-01-04T13:14:15.109Z,1.38
2017-01-04T13:15:25.859Z,1.31
2017-01-04T13:16:36.583Z,1.21
2017-01-04T13:17:47.278Z,1.14
2017-01-04T13:18:58.015Z,1.22
2017-01-04T13:20:08.737Z,1.2
2017-01-04T13:21:19.469Z,1.18
2017-01-04T13:22:30.190Z,1.16
2017-01-04T13:23:40.948Z,1
2017-01-04T13:24:51.695Z,1.16
2017-01-04T13:26:02.399Z,1.09
2017-01-04T13:27:13.122Z,1.04
2017-01-04T13:28:23.841Z,1.18
2017-01-04T13:29:34.590Z,1.18
2017-01-04T13:30:45.284Z,1.03
2017-01-04T13:31:56.001Z,1.06
2017-01-04T13:33:06.705Z,1.14
2017-01-04T13:34:17.429Z,1.09
2017-01-04T13:35:28.163Z,1.06
2017-01-04T13:36:38.893Z,1.03
2017-01-04T13:37:49.628Z,1.02
2017-01-04T13:39:00.377Z,1.18
2017-01-04T13:40:11.073Z,1.16
2017-01-04T13:41:21.794Z,1.1
2017-01-04T13:42:32.512Z,1.03
2017-01-04T13:43:43.241Z,1.09
2017-01-04T13:44:53.954Z,1.06
2017-01-04T13:46:04.708Z,1.18
2017-01-04T13:47:15.474Z,1.18
2017-01-04T13:48:26.174Z,1.27
2017-01-04T13:49:36.899Z,1.25
2017-01-04T13:50:47.616Z,1.25
2017-01-04T13:51:58.336Z,1.2
2017-01-04T13:53:09.059Z,1.2
2017-01-04T13:54:19.756Z,1.13
2017-01-04T13:55:30.476Z,1.12
2017-01-04T13:56:41.198Z,1.16
2017-01-04T13:57:51.896Z,1.03
2017-01-04T13:59:02.630Z,1.04
2017-01-04T14:00:13.383Z,1.14
2017-01-04T14:01:24.105Z,1.1
2017-01-04T14:02:34.825Z,1.04
2017-01-04T14:03:45.528Z,1.04
2017-01-04T14:04:56.262Z,1.1
2017-01-04T14:06:07.005Z,1.06
2017-01-04T14:07:17.735Z,1.03
2017-01-04T14:08:28.454Z,1.14
2017-01-04T14:09:39.193Z,1.09
2017-01-04T14:10:49.941Z,1.04
2017-01-04T14:12:00.692Z,1.12
2017-01-04T14:13:11.419Z,1.07
2017-01-04T14:14:22.154Z,1.07
2017-01-04T14:15:32.905Z,1.02
2017-01-04T14:16:43.642Z,1.13
2017-01-04T14:17:54.375Z,1.2
2017-01-04T14:19:05.092Z,1.18
2017-01-04T14:20:15.831Z,1.28
2017-01-04T14:21:26.561Z,1.22
2017-01-04T14:22:37.334Z,1.25
2017-01-04T14:23:48.027Z,1.12
2017-01-04T14:24:58.750Z,1.22
2017-01-04T14:26:09.867Z,1.2
2017-01-04T14:27:20.588Z,1.22
2017-01-04T14:28:31.302Z,1.16
2017-01-04T14:29:42.007Z,1.2
2017-01-04T14:30:52.746Z,1.24
2017-01-04T14:32:03.492Z,1.34
2017-01-04T14:33:14.220Z,1.21
2017-01-04T14:34:24.932Z,1.25
2017-01-04T14:35:35.625Z,1.28
2017-01-04T14:36:46.350Z,1.3
2017-01-04T14:37:57.067Z,1.22
2017-01-04T14:39:07.798Z,1.38
2017-01-04T14:40:18.520Z,1.36
2017-01-04T14:41:29.254Z,1.38
2017-01-04T14:42:40.004Z,1.39
2017-01-04T14:43:50.720Z,1.45
2017-01-04T14:45:01.478Z,1.32
2017-01-04T14:46:12.201Z,1.38
2017-01-04T14:47:22.937Z,1.48
2017-01-04T14:48:33.712Z,1.4
2017-01-04T14:49:44.429Z,1.48
2017-01-04T14:50:55.202Z,1.45
2017-01-04T14:52:05.953Z,1.39
2017-01-04T14:53:16.647Z,1.45
2017-01-04T14:54:27.370Z,1.49
2017-01-04T14:55:38.093Z,1.4
2017-01-04T14:56:48.829Z,1.39
2017-01-04T14:57:59.548Z,1.43
2017-01-04T14:59:10.294Z,1.38
2017-01-04T15:00:21.053Z,1.39
2017-01-04T15:01:31.799Z,1.53
2017-01-04T15:02:42.543Z,1.52
2017-01-04T15:03:53.265Z,1.48
2017-01-04T15:05:04.001Z,1.57
2017-01-04T15:06:14.720Z,1.52
2017-01-04T15:07:25.415Z,1.52
2017-01-04T15:08:36.145Z,1.53
2017-01-04T15:09:46.857Z,1.52
2017-01-04T15:10:57.585Z,1.52
2017-01-04T15:12:08.340Z,1.52
2017-01-04T15:13:19.054Z,1.52
2017-01-04T15:14:29.791Z,1.57
2017-01-04T15:15:40.537Z,1.56
2017-01-04T15:16:51.283Z,1.56
2017-01-04T15:18:02.032Z,1.61
2017-01-04T15:19:12.725Z,1.6
2017-01-04T15:20:23.451Z,1.58
2017-01-04T15:21:34.149Z,1.63
2017-01-04T15:22:44.841Z,1.6
2017-01-04T15:23:55.562Z,1.6
2017-01-04T15:25:06.280Z,1.6
2017-01-04T15:26:17.004Z,1.64
2017-01-04T15:27:27.747Z,1.71
2017-01-04T15:28:38.451Z,1.66
2017-01-04T15:29:49.176Z,1.64
2017-01-04T15:30:59.914Z,1.7
2017-01-04T15:32:10.614Z,1.7
2017-01-04T15:33:21.328Z,1.64
2017-01-04T15:34:32.099Z,1.66
2017-01-04T15:35:42.848Z,1.75
2017-01-04T15:36:53.569Z,1.66
2017-01-04T15:38:04.337Z,1.64
2017-01-04T15:39:15.066Z,1.7
2017-01-04T15:40:25.783Z,1.58
2017-01-04T15:41:36.511Z,1.67
2017-01-04T15:42:47.212Z,1.7
2017-01-04T15:43:57.948Z,1.75
2017-01-04T15:45:08.697Z,1.67
2017-01-04T15:46:19.422Z,1.63